Time;durP1;ratioP1;P1;durP2;ratioP2;P2;SDS_P1;SDS_P2;PMS_P1;PMS_P2;Temp;Humidity;BMP_temperature;BMP_pressure;BME280_temperature;BME280_humidity;BME280_pressure;Samples;Min_cycle;Max_cycle;Signal;HPM_P1;HPM_P2
2024/01/09 00:02:05;;;;;;;6.40;1.95;;;;;;;;;;6284082;22;20019;-44
2024/01/09 00:04:34;;;;;;;10.98;2.25;;;;;;;;;;6273986;22;20098;-46
2024/01/09 00:07:02;;;;;;;7.67;2.33;;;;;;;;;;6273411;22;20019;-44
2024/01/09 00:09:29;;;;;;;7.47;2.03;;;;;;;;;;6277012;22;20034;-44
2024/01/09 00:11:57;;;;;;;9.98;1.98;;;;;;;;;;6244248;22;20026;-45
2024/01/09 00:14:25;;;;;;;9.75;1.88;;;;;;;;;;6276042;22;20016;-44
2024/01/09 00:16:53;;;;;;;11.95;2.25;;;;;;;;;;6272522;22;20409;-44
2024/01/09 00:19:20;;;;;;;7.63;1.93;;;;;;;;;;6246208;22;20015;-45
2024/01/09 00:21:50;;;;;;;14.52;2.30;;;;;;;;;;6275808;22;20102;-46
2024/01/09 00:24:18;;;;;;;7.65;1.85;;;;;;;;;;6269454;22;20027;-45
2024/01/09 00:26:46;;;;;;;9.00;2.03;;;;;;;;;;6277861;22;20027;-45
2024/01/09 00:29:13;;;;;;;9.85;1.90;;;;;;;;;;6270329;22;20019;-47
2024/01/09 00:31:44;;;;;;;9.93;2.30;;;;;;;;;;6281057;22;20012;-45
2024/01/09 00:34:11;;;;;;;9.55;2.22;;;;;;;;;;6203615;22;20397;-45
2024/01/09 00:36:43;;;;;;;7.60;1.90;;;;;;;;;;6269663;22;20102;-45
2024/01/09 00:39:12;;;;;;;10.23;2.03;;;;;;;;;;6268924;22;20678;-44
2024/01/09 00:41:40;;;;;;;10.60;1.90;;;;;;;;;;6272085;22;20019;-46
2024/01/09 00:44:08;;;;;;;11.30;1.90;;;;;;;;;;6274444;22;20061;-45
2024/01/09 00:46:36;;;;;;;7.65;2.15;;;;;;;;;;6233313;22;20019;-46
2024/01/09 00:49:04;;;;;;;8.60;1.65;;;;;;;;;;6274902;22;20026;-45
2024/01/09 00:51:32;;;;;;;8.73;1.88;;;;;;;;;;6271801;22;20288;-47
2024/01/09 00:54:00;;;;;;;9.90;1.75;;;;;;;;;;6276739;22;20373;-45
2024/01/09 00:56:29;;;;;;;12.80;1.90;;;;;;;;;;6269309;22;20708;-46
2024/01/09 00:58:58;;;;;;;9.10;2.08;;;;;;;;;;6276549;22;20438;-45
2024/01/09 01:01:26;;;;;;;11.55;1.65;;;;;;;;;;6268255;22;20019;-45
2024/01/09 01:03:54;;;;;;;8.15;2.53;;;;;;;;;;6275102;22;20015;-45
2024/01/09 01:06:21;;;;;;;10.32;2.30;;;;;;;;;;6272424;22;20068;-47
2024/01/09 01:08:49;;;;;;;7.17;2.10;;;;;;;;;;6273803;22;20111;-45
2024/01/09 01:11:17;;;;;;;12.43;2.15;;;;;;;;;;6249424;22;20049;-46
2024/01/09 01:13:46;;;;;;;8.50;2.17;;;;;;;;;;6266997;22;20041;-44
2024/01/09 01:16:14;;;;;;;9.18;1.90;;;;;;;;;;6276550;22;20041;-45
2024/01/09 01:18:41;;;;;;;19.58;3.17;;;;;;;;;;6270434;22;20030;-44
2024/01/09 01:21:09;;;;;;;10.87;2.07;;;;;;;;;;6245650;22;20455;-45
2024/01/09 01:23:37;;;;;;;10.73;1.98;;;;;;;;;;6272297;22;20015;-44
2024/01/09 01:26:05;;;;;;;8.98;2.17;;;;;;;;;;6272682;22;20373;-47
2024/01/09 01:28:33;;;;;;;11.25;2.20;;;;;;;;;;6277553;22;20090;-44
2024/01/09 01:31:02;;;;;;;10.15;2.00;;;;;;;;;;6277702;22;20015;-46
2024/01/09 01:33:30;;;;;;;9.70;2.47;;;;;;;;;;6253517;22;20021;-44
2024/01/09 01:35:58;;;;;;;9.27;1.88;;;;;;;;;;6241648;22;20062;-45
2024/01/09 01:38:26;;;;;;;9.18;2.10;;;;;;;;;;6241046;22;20401;-44
2024/01/09 01:40:54;;;;;;;9.82;2.05;;;;;;;;;;6277921;22;20081;-44
2024/01/09 01:43:22;;;;;;;7.30;1.90;;;;;;;;;;6271871;22;20018;-45
2024/01/09 01:45:50;;;;;;;8.07;1.93;;;;;;;;;;6277007;22;20039;-47
2024/01/09 01:48:19;;;;;;;8.93;1.48;;;;;;;;;;6273814;22;20481;-46
2024/01/09 01:50:47;;;;;;;11.50;1.88;;;;;;;;;;6248554;22;20065;-45
2024/01/09 01:53:15;;;;;;;12.18;2.30;;;;;;;;;;6271230;22;20015;-45
2024/01/09 01:55:43;;;;;;;11.60;1.90;;;;;;;;;;6278676;22;20019;-45
2024/01/09 01:58:11;;;;;;;12.43;2.13;;;;;;;;;;6272143;22;20360;-45
2024/01/09 02:00:40;;;;;;;10.98;2.20;;;;;;;;;;6279044;22;20019;-45
2024/01/09 02:03:08;;;;;;;10.35;2.55;;;;;;;;;;6232561;22;20108;-48
2024/01/09 02:05:39;;;;;;;8.23;1.80;;;;;;;;;;6272445;22;20108;-46
2024/01/09 02:08:08;;;;;;;9.80;2.60;;;;;;;;;;6279401;22;20065;-45
2024/01/09 02:10:35;;;;;;;8.47;1.70;;;;;;;;;;6270248;22;20042;-46
2024/01/09 02:13:07;;;;;;;7.45;1.90;;;;;;;;;;6272222;22;20056;-46
2024/01/09 02:15:37;;;;;;;9.75;1.88;;;;;;;;;;6274025;22;20019;-47
2024/01/09 02:18:05;;;;;;;6.93;2.53;;;;;;;;;;6284209;22;20011;-47
2024/01/09 02:20:33;;;;;;;8.70;1.98;;;;;;;;;;6251998;22;20015;-45
2024/01/09 02:23:02;;;;;;;11.10;2.23;;;;;;;;;;6285020;22;20081;-45
2024/01/09 02:25:30;;;;;;;8.32;1.85;;;;;;;;;;6278299;22;20055;-46
2024/01/09 02:28:01;;;;;;;6.28;1.60;;;;;;;;;;6282441;22;20073;-45
2024/01/09 02:30:31;;;;;;;11.88;1.98;;;;;;;;;;6281173;22;20097;-45
2024/01/09 02:32:59;;;;;;;11.55;2.45;;;;;;;;;;6221613;22;20047;-43
2024/01/09 02:35:27;;;;;;;9.00;1.70;;;;;;;;;;6242647;22;20527;-46
2024/01/09 02:37:55;;;;;;;12.23;2.05;;;;;;;;;;6282986;22;20098;-47
2024/01/09 02:40:22;;;;;;;9.15;1.85;;;;;;;;;;6275990;22;20513;-45
2024/01/09 02:42:50;;;;;;;9.73;1.60;;;;;;;;;;6285754;22;20058;-44
2024/01/09 02:45:18;;;;;;;10.73;1.90;;;;;;;;;;6274649;22;20026;-48
2024/01/09 02:47:47;;;;;;;10.83;1.77;;;;;;;;;;6275580;22;20019;-45
2024/01/09 02:50:15;;;;;;;11.68;1.63;;;;;;;;;;6289130;22;20019;-45
2024/01/09 02:52:43;;;;;;;8.68;1.95;;;;;;;;;;6286845;22;20102;-45
2024/01/09 02:55:10;;;;;;;10.77;1.75;;;;;;;;;;6284456;22;20016;-48
2024/01/09 02:57:40;;;;;;;7.32;1.77;;;;;;;;;;6286122;22;20015;-45
2024/01/09 03:00:08;;;;;;;6.80;1.53;;;;;;;;;;6286739;22;20015;-45
2024/01/09 03:02:36;;;;;;;8.73;1.85;;;;;;;;;;6281438;22;20025;-45
2024/01/09 03:05:06;;;;;;;6.38;1.65;;;;;;;;;;6272169;22;20102;-44
2024/01/09 03:07:35;;;;;;;8.68;1.65;;;;;;;;;;6285638;22;20042;-46
2024/01/09 03:10:03;;;;;;;9.45;1.98;;;;;;;;;;6286432;22;20015;-45
2024/01/09 03:12:31;;;;;;;9.13;2.03;;;;;;;;;;6285558;22;20026;-46
2024/01/09 03:14:59;;;;;;;10.35;1.70;;;;;;;;;;6241140;22;20346;-43
2024/01/09 03:17:26;;;;;;;12.48;1.90;;;;;;;;;;6287409;22;20026;-44
2024/01/09 03:19:54;;;;;;;7.13;1.67;;;;;;;;;;6284105;22;20023;-45
2024/01/09 03:22:23;;;;;;;10.48;1.63;;;;;;;;;;6261879;22;20023;-45
2024/01/09 03:24:51;;;;;;;11.57;2.23;;;;;;;;;;6286692;22;20474;-45
2024/01/09 03:27:19;;;;;;;11.35;1.90;;;;;;;;;;6286892;22;20019;-43
2024/01/09 03:29:47;;;;;;;8.18;1.70;;;;;;;;;;6280745;22;20582;-45
2024/01/09 03:32:19;;;;;;;10.55;1.70;;;;;;;;;;6287677;22;20411;-46
2024/01/09 03:34:47;;;;;;;10.50;1.73;;;;;;;;;;6243052;22;20019;-45
2024/01/09 03:37:14;;;;;;;7.57;1.87;;;;;;;;;;6279398;22;20388;-45
2024/01/09 03:39:46;;;;;;;8.40;1.45;;;;;;;;;;6287577;22;20023;-45
2024/01/09 03:42:14;;;;;;;10.70;2.17;;;;;;;;;;6281988;22;20046;-45
2024/01/09 03:44:42;;;;;;;10.45;2.33;;;;;;;;;;6269405;22;20019;-45
2024/01/09 03:47:09;;;;;;;10.20;2.20;;;;;;;;;;6288107;22;20092;-45
2024/01/09 03:49:37;;;;;;;8.23;2.17;;;;;;;;;;6289915;22;20011;-44
2024/01/09 03:52:06;;;;;;;9.82;1.80;;;;;;;;;;6283739;22;20026;-45
2024/01/09 03:54:34;;;;;;;7.95;1.65;;;;;;;;;;6282864;22;20038;-45
2024/01/09 03:57:02;;;;;;;8.25;1.80;;;;;;;;;;6288854;22;20011;-45
2024/01/09 03:59:33;;;;;;;11.10;2.03;;;;;;;;;;6288704;22;20735;-45
2024/01/09 04:02:00;;;;;;;9.67;1.87;;;;;;;;;;6285646;22;20452;-45
2024/01/09 04:04:28;;;;;;;10.38;2.30;;;;;;;;;;6280763;22;20038;-45
2024/01/09 04:06:56;;;;;;;8.13;1.60;;;;;;;;;;6286771;22;20022;-46
2024/01/09 04:09:23;;;;;;;11.90;1.90;;;;;;;;;;6285020;22;20456;-45
2024/01/09 04:11:51;;;;;;;9.10;1.92;;;;;;;;;;6285304;22;20441;-45
2024/01/09 04:14:20;;;;;;;9.17;1.63;;;;;;;;;;6282484;22;20116;-45
2024/01/09 04:16:48;;;;;;;10.20;1.85;;;;;;;;;;6260999;22;20032;-45
2024/01/09 04:19:16;;;;;;;8.75;2.25;;;;;;;;;;6284182;22;20015;-45
2024/01/09 04:21:44;;;;;;;11.57;1.88;;;;;;;;;;6275426;22;20037;-47
2024/01/09 04:24:12;;;;;;;8.00;1.42;;;;;;;;;;6285981;22;20094;-44
2024/01/09 04:26:40;;;;;;;10.27;1.60;;;;;;;;;;6256600;22;20015;-45
2024/01/09 04:29:07;;;;;;;7.93;2.05;;;;;;;;;;6286928;22;20057;-45
2024/01/09 04:31:37;;;;;;;7.80;1.92;;;;;;;;;;6287343;22;20466;-44
2024/01/09 04:34:06;;;;;;;8.98;1.65;;;;;;;;;;6222845;22;20506;-45
2024/01/09 04:36:34;;;;;;;9.07;1.95;;;;;;;;;;6281949;22;20011;-44
2024/01/09 04:39:02;;;;;;;9.57;1.60;;;;;;;;;;6275015;22;20015;-47
2024/01/09 04:41:29;;;;;;;6.35;1.73;;;;;;;;;;6290529;22;20102;-45
2024/01/09 04:43:57;;;;;;;7.85;1.73;;;;;;;;;;6284672;22;20090;-44
2024/01/09 04:46:25;;;;;;;9.50;1.95;;;;;;;;;;6288791;22;20014;-45
2024/01/09 04:48:54;;;;;;;7.85;1.45;;;;;;;;;;6287337;22;20027;-45
2024/01/09 04:51:22;;;;;;;9.27;1.70;;;;;;;;;;6289899;22;20097;-45
2024/01/09 04:53:49;;;;;;;11.40;1.60;;;;;;;;;;6280148;22;20018;-45
2024/01/09 04:56:17;;;;;;;8.80;1.83;;;;;;;;;;6290691;22;20025;-46
2024/01/09 04:58:45;;;;;;;10.25;2.08;;;;;;;;;;6286391;22;20531;-44
2024/01/09 05:01:13;;;;;;;6.63;1.60;;;;;;;;;;6287951;22;20019;-44
2024/01/09 05:03:46;;;;;;;8.00;1.90;;;;;;;;;;6285640;22;20073;-44
2024/01/09 05:06:16;;;;;;;9.88;2.00;;;;;;;;;;6290226;22;20393;-46
2024/01/09 05:08:44;;;;;;;10.15;1.70;;;;;;;;;;6285136;22;20362;-45
2024/01/09 05:11:12;;;;;;;5.97;1.45;;;;;;;;;;6286908;22;20019;-45
2024/01/09 05:13:45;;;;;;;8.13;2.15;;;;;;;;;;6288723;22;20492;-45
2024/01/09 05:16:13;;;;;;;10.17;2.03;;;;;;;;;;6284807;22;20015;-45
2024/01/09 05:18:41;;;;;;;8.55;2.38;;;;;;;;;;6291773;22;20019;-44
2024/01/09 05:21:09;;;;;;;8.55;1.63;;;;;;;;;;6282881;22;20098;-46
2024/01/09 05:23:38;;;;;;;9.32;2.17;;;;;;;;;;6289227;22;20473;-45
2024/01/09 05:26:06;;;;;;;10.23;1.85;;;;;;;;;;6287400;22;20015;-45
2024/01/09 05:28:34;;;;;;;13.50;1.67;;;;;;;;;;6286373;22;20090;-45
2024/01/09 05:31:02;;;;;;;9.20;2.00;;;;;;;;;;6282064;22;20015;-44
2024/01/09 05:33:31;;;;;;;9.13;2.05;;;;;;;;;;6236686;22;20024;-45
2024/01/09 05:35:59;;;;;;;8.82;1.63;;;;;;;;;;6246982;22;20478;-43
2024/01/09 05:38:27;;;;;;;11.02;1.83;;;;;;;;;;6285953;22;20016;-46
2024/01/09 05:40:56;;;;;;;8.40;1.73;;;;;;;;;;6285244;22;20102;-47
2024/01/09 05:43:24;;;;;;;6.47;1.85;;;;;;;;;;6287314;22;20022;-46
2024/01/09 05:45:51;;;;;;;8.30;2.00;;;;;;;;;;6283753;22;20038;-45
2024/01/09 05:48:19;;;;;;;14.20;2.38;;;;;;;;;;6280532;22;20019;-47
2024/01/09 05:50:47;;;;;;;10.57;1.95;;;;;;;;;;6270945;22;20483;-45
2024/01/09 05:53:15;;;;;;;8.80;2.27;;;;;;;;;;6274224;22;20090;-46
2024/01/09 05:55:43;;;;;;;11.73;1.90;;;;;;;;;;6269767;22;20015;-45
2024/01/09 05:58:12;;;;;;;9.02;2.00;;;;;;;;;;6272540;22;20019;-45
2024/01/09 06:00:40;;;;;;;13.50;2.10;;;;;;;;;;6269842;22;20592;-44
2024/01/09 06:03:08;;;;;;;9.60;2.05;;;;;;;;;;6278160;22;20015;-47
2024/01/09 06:05:36;;;;;;;8.70;2.70;;;;;;;;;;6274244;22;20054;-47
2024/01/09 06:08:04;;;;;;;8.88;2.53;;;;;;;;;;6269649;22;20317;-47
2024/01/09 06:10:32;;;;;;;13.88;2.20;;;;;;;;;;6274370;22;20015;-47
2024/01/09 06:12:59;;;;;;;9.00;1.70;;;;;;;;;;6278263;22;20015;-45
2024/01/09 06:15:28;;;;;;;9.82;3.22;;;;;;;;;;6286094;22;20015;-45
2024/01/09 06:17:56;;;;;;;7.23;1.93;;;;;;;;;;6270633;22;20034;-47
2024/01/09 06:20:24;;;;;;;9.07;2.45;;;;;;;;;;6279253;22;20042;-44
2024/01/09 06:22:53;;;;;;;9.70;1.90;;;;;;;;;;6272430;22;20497;-46
2024/01/09 06:25:21;;;;;;;9.75;2.00;;;;;;;;;;6276953;22;20099;-45
2024/01/09 06:27:49;;;;;;;10.43;2.35;;;;;;;;;;6273701;22;20505;-44
2024/01/09 06:30:17;;;;;;;15.07;2.53;;;;;;;;;;6279272;22;20107;-47
2024/01/09 06:32:46;;;;;;;8.50;1.95;;;;;;;;;;6245422;22;20019;-45
2024/01/09 06:35:14;;;;;;;7.70;1.33;;;;;;;;;;6220639;22;20065;-45
2024/01/09 06:37:42;;;;;;;10.23;1.70;;;;;;;;;;6276305;22;20542;-45
2024/01/09 06:40:10;;;;;;;13.65;2.15;;;;;;;;;;6282267;22;20316;-46
2024/01/09 06:42:39;;;;;;;9.83;2.07;;;;;;;;;;6271160;22;20443;-45
2024/01/09 06:45:07;;;;;;;7.65;1.52;;;;;;;;;;6284965;22;20023;-45
2024/01/09 06:47:35;;;;;;;10.77;2.08;;;;;;;;;;6280652;22;20019;-46
2024/01/09 06:50:05;;;;;;;12.15;2.38;;;;;;;;;;6286691;22;20019;-45
2024/01/09 06:52:47;;;;;;;13.32;1.90;;;;;;;;;;6285731;22;20266;-46
2024/01/09 06:55:16;;;;;;;7.03;1.90;;;;;;;;;;6278771;22;20555;-46
2024/01/09 06:57:43;;;;;;;9.43;2.10;;;;;;;;;;6277204;22;20011;-47
2024/01/09 07:00:11;;;;;;;8.60;2.20;;;;;;;;;;6279120;22;20072;-45
2024/01/09 07:02:39;;;;;;;18.30;2.85;;;;;;;;;;6278275;22;20023;-45
2024/01/09 07:05:09;;;;;;;10.40;1.90;;;;;;;;;;6269612;22;20023;-44
2024/01/09 07:07:37;;;;;;;9.27;1.97;;;;;;;;;;6279145;22;20026;-45
2024/01/09 07:10:16;;;;;;;11.77;2.35;;;;;;;;;;6272186;22;20019;-45
2024/01/09 07:12:44;;;;;;;10.52;1.95;;;;;;;;;;6277428;22;20024;-45
2024/01/09 07:15:29;;;;;;;9.90;2.40;;;;;;;;;;6283967;22;20164;-44
2024/01/09 07:17:57;;;;;;;12.27;2.60;;;;;;;;;;6271782;22;20023;-47
2024/01/09 07:20:26;;;;;;;11.00;2.17;;;;;;;;;;6278045;22;20053;-45
2024/01/09 07:22:54;;;;;;;9.23;2.20;;;;;;;;;;6263512;22;20068;-45
2024/01/09 07:25:35;;;;;;;13.38;2.00;;;;;;;;;;6277953;22;20047;-45
2024/01/09 07:28:03;;;;;;;14.10;2.25;;;;;;;;;;6279050;22;20416;-46
2024/01/09 07:30:32;;;;;;;12.07;2.67;;;;;;;;;;6285231;22;20022;-45
2024/01/09 07:33:00;;;;;;;11.17;2.37;;;;;;;;;;6249399;22;20104;-45
2024/01/09 07:35:34;;;;;;;13.52;2.55;;;;;;;;;;6241029;22;20442;-44
2024/01/09 07:38:02;;;;;;;14.13;2.60;;;;;;;;;;6277963;22;20065;-44
2024/01/09 07:40:30;;;;;;;8.80;2.03;;;;;;;;;;6279987;22;20021;-44
2024/01/09 07:42:59;;;;;;;10.38;2.40;;;;;;;;;;6256613;22;20023;-44
2024/01/09 07:45:29;;;;;;;9.73;2.40;;;;;;;;;;6280935;22;20098;-45
2024/01/09 07:47:58;;;;;;;14.70;2.35;;;;;;;;;;6285814;22;20015;-45
2024/01/09 07:50:26;;;;;;;10.02;2.20;;;;;;;;;;6276590;22;20521;-44
2024/01/09 07:52:55;;;;;;;10.05;2.15;;;;;;;;;;6283961;22;20011;-44
2024/01/09 07:55:23;;;;;;;14.10;2.78;;;;;;;;;;6273943;22;20015;-47
2024/01/09 07:57:50;;;;;;;8.00;2.33;;;;;;;;;;6275164;22;20015;-47
2024/01/09 08:00:18;;;;;;;7.88;2.17;;;;;;;;;;6243632;22;20023;-46
2024/01/09 08:02:46;;;;;;;11.32;3.17;;;;;;;;;;6279480;22;20015;-45
2024/01/09 08:05:14;;;;;;;12.02;3.25;;;;;;;;;;6273128;22;20045;-45
2024/01/09 08:07:42;;;;;;;10.25;2.58;;;;;;;;;;6255535;22;20011;-44
2024/01/09 08:10:11;;;;;;;8.30;2.20;;;;;;;;;;6278898;22;20107;-45
2024/01/09 08:12:39;;;;;;;9.82;2.13;;;;;;;;;;6282450;22;20106;-46
2024/01/09 08:15:07;;;;;;;6.45;2.00;;;;;;;;;;6283964;22;20020;-44
2024/01/09 08:17:35;;;;;;;8.57;2.50;;;;;;;;;;6279217;22;20019;-44
2024/01/09 08:20:03;;;;;;;14.23;2.67;;;;;;;;;;6284578;22;20019;-45
2024/01/09 08:22:32;;;;;;;14.50;1.80;;;;;;;;;;6272949;22;20026;-46
2024/01/09 08:25:00;;;;;;;10.30;2.17;;;;;;;;;;6274363;22;20021;-44
2024/01/09 08:27:29;;;;;;;12.23;2.30;;;;;;;;;;6283071;22;20042;-44
2024/01/09 08:29:57;;;;;;;11.63;2.40;;;;;;;;;;6275357;22;20041;-44
2024/01/09 08:32:26;;;;;;;11.30;2.40;;;;;;;;;;6223809;22;20047;-44
2024/01/09 08:34:54;;;;;;;13.47;2.50;;;;;;;;;;6245949;22;20015;-46
2024/01/09 08:37:22;;;;;;;11.38;2.42;;;;;;;;;;6274395;22;20510;-44
2024/01/09 08:39:50;;;;;;;10.25;2.45;;;;;;;;;;6256912;22;20069;-46
2024/01/09 08:42:17;;;;;;;15.43;3.03;;;;;;;;;;6277185;22;20019;-47
2024/01/09 08:44:47;;;;;;;10.82;3.40;;;;;;;;;;6255871;22;20391;-45
2024/01/09 08:47:14;;;;;;;13.40;3.03;;;;;;;;;;6277047;22;20438;-45
2024/01/09 08:49:42;;;;;;;13.25;2.38;;;;;;;;;;6282106;22;20015;-47
2024/01/09 08:52:10;;;;;;;10.68;2.55;;;;;;;;;;6274725;22;20090;-46
2024/01/09 08:54:38;;;;;;;11.88;2.58;;;;;;;;;;6282894;22;20011;-45
2024/01/09 08:57:06;;;;;;;9.43;2.05;;;;;;;;;;6251820;22;20810;-45
2024/01/09 08:59:34;;;;;;;9.77;2.27;;;;;;;;;;6283436;22;20011;-45
2024/01/09 09:02:03;;;;;;;17.55;2.75;;;;;;;;;;6271096;22;20573;-45
2024/01/09 09:04:31;;;;;;;11.75;2.75;;;;;;;;;;6282832;22;20468;-44
2024/01/09 09:06:59;;;;;;;10.68;2.30;;;;;;;;;;6279669;22;20532;-44
2024/01/09 09:09:27;;;;;;;12.40;2.78;;;;;;;;;;6282144;22;20023;-46
2024/01/09 09:11:55;;;;;;;13.97;3.70;;;;;;;;;;6281569;22;20019;-44
2024/01/09 09:14:23;;;;;;;16.38;2.92;;;;;;;;;;6276243;22;20015;-44
2024/01/09 09:16:51;;;;;;;9.77;2.38;;;;;;;;;;6286849;22;20029;-44
2024/01/09 09:19:22;;;;;;;10.90;2.85;;;;;;;;;;6271758;22;20026;-45
2024/01/09 09:21:50;;;;;;;6.97;2.22;;;;;;;;;;6254552;22;20015;-44
2024/01/09 09:24:18;;;;;;;12.80;2.47;;;;;;;;;;6281697;22;20019;-44
2024/01/09 09:26:46;;;;;;;13.52;2.75;;;;;;;;;;6278477;22;20011;-44
2024/01/09 09:29:14;;;;;;;13.88;2.80;;;;;;;;;;6277477;22;20019;-45
2024/01/09 09:31:58;;;;;;;10.38;2.38;;;;;;;;;;6278998;22;20065;-44
2024/01/09 09:34:28;;;;;;;10.82;3.00;;;;;;;;;;6213562;22;20011;-44
2024/01/09 09:36:55;;;;;;;10.43;2.70;;;;;;;;;;6278933;22;20043;-44
2024/01/09 09:39:23;;;;;;;9.88;2.75;;;;;;;;;;6280682;22;20097;-44
2024/01/09 09:41:53;;;;;;;10.27;2.53;;;;;;;;;;6283443;22;20023;-45
2024/01/09 09:44:21;;;;;;;10.02;2.53;;;;;;;;;;6281948;22;20027;-44
2024/01/09 09:46:51;;;;;;;13.10;2.97;;;;;;;;;;6282716;22;20041;-45
2024/01/09 09:49:20;;;;;;;9.30;2.30;;;;;;;;;;6276551;22;20022;-43
2024/01/09 09:51:49;;;;;;;11.98;2.92;;;;;;;;;;6279848;22;20016;-47
2024/01/09 09:54:18;;;;;;;12.65;2.83;;;;;;;;;;6277503;22;20026;-44
2024/01/09 09:56:46;;;;;;;12.00;2.75;;;;;;;;;;6286015;22;20042;-44
2024/01/09 09:59:15;;;;;;;8.82;2.53;;;;;;;;;;6278289;22;20026;-46
2024/01/09 10:01:44;;;;;;;10.97;2.37;;;;;;;;;;6279473;22;20473;-47
2024/01/09 10:04:19;;;;;;;13.55;3.38;;;;;;;;;;6287284;22;20030;-44
2024/01/09 10:06:49;;;;;;;10.85;2.60;;;;;;;;;;6278635;22;20011;-44
2024/01/09 10:09:17;;;;;;;11.93;3.10;;;;;;;;;;6280759;22;20421;-44
2024/01/09 10:11:48;;;;;;;13.70;2.47;;;;;;;;;;6275500;22;20050;-46
2024/01/09 10:14:16;;;;;;;8.00;2.17;;;;;;;;;;6240810;22;20023;-44
2024/01/09 10:16:51;;;;;;;12.05;2.80;;;;;;;;;;6287282;22;20803;-45
2024/01/09 10:19:18;;;;;;;11.10;2.70;;;;;;;;;;6280699;22;20024;-45
2024/01/09 10:21:46;;;;;;;16.73;2.88;;;;;;;;;;6282712;22;20015;-45
2024/01/09 10:24:16;;;;;;;13.35;2.70;;;;;;;;;;6278191;22;20027;-44
2024/01/09 10:26:44;;;;;;;14.57;2.90;;;;;;;;;;6241953;22;20019;-43
2024/01/09 10:29:13;;;;;;;12.50;2.63;;;;;;;;;;6250280;22;20970;-43
2024/01/09 10:31:44;;;;;;;16.17;2.70;;;;;;;;;;6281252;22;20064;-43
2024/01/09 10:34:12;;;;;;;12.38;2.78;;;;;;;;;;6226558;22;20050;-45
2024/01/09 10:36:40;;;;;;;11.75;2.28;;;;;;;;;;6281233;22;20092;-44
2024/01/09 10:39:09;;;;;;;12.60;2.60;;;;;;;;;;6277992;22;20034;-44
2024/01/09 10:41:39;;;;;;;10.60;2.72;;;;;;;;;;6286937;22;20019;-47
2024/01/09 10:44:07;;;;;;;9.85;2.30;;;;;;;;;;6276344;22;20030;-44
2024/01/09 10:46:36;;;;;;;12.38;2.45;;;;;;;;;;6286965;22;20021;-44
2024/01/09 10:49:06;;;;;;;15.00;2.50;;;;;;;;;;6280203;22;20015;-47
2024/01/09 10:51:35;;;;;;;14.47;2.70;;;;;;;;;;6284937;22;20015;-46
2024/01/09 10:54:04;;;;;;;12.98;2.28;;;;;;;;;;6267335;22;20217;-44
2024/01/09 10:56:32;;;;;;;10.38;1.90;;;;;;;;;;6287683;22;20011;-44
2024/01/09 10:59:01;;;;;;;11.88;2.55;;;;;;;;;;6277570;22;20019;-44
2024/01/09 11:01:31;;;;;;;9.57;2.55;;;;;;;;;;6256180;22;20787;-46
2024/01/09 11:03:58;;;;;;;9.43;2.40;;;;;;;;;;6276833;22;20023;-44
2024/01/09 11:06:27;;;;;;;7.53;1.63;;;;;;;;;;6282940;22;20061;-44
2024/01/09 11:08:58;;;;;;;10.02;1.77;;;;;;;;;;6283047;22;20019;-44
2024/01/09 11:11:27;;;;;;;10.13;2.50;;;;;;;;;;6282323;22;20493;-45
2024/01/09 11:13:56;;;;;;;11.73;1.88;;;;;;;;;;6283637;22;20019;-45
2024/01/09 11:16:26;;;;;;;13.90;2.03;;;;;;;;;;6280053;22;20023;-45
2024/01/09 11:18:54;;;;;;;9.73;2.17;;;;;;;;;;6287429;22;20033;-45
2024/01/09 11:21:26;;;;;;;11.68;1.73;;;;;;;;;;6279727;22;20150;-46
2024/01/09 11:23:57;;;;;;;8.85;1.52;;;;;;;;;;6278204;22;20098;-45
2024/01/09 11:26:29;;;;;;;12.57;2.20;;;;;;;;;;6272379;22;20715;-46
2024/01/09 11:28:58;;;;;;;9.73;1.47;;;;;;;;;;6281331;22;20110;-45
2024/01/09 11:31:30;;;;;;;10.00;1.90;;;;;;;;;;6280487;22;20023;-44
2024/01/09 11:33:57;;;;;;;9.55;1.50;;;;;;;;;;6220762;22;20015;-45
2024/01/09 11:36:27;;;;;;;12.68;1.80;;;;;;;;;;6271933;22;20019;-44
2024/01/09 11:38:56;;;;;;;9.88;1.73;;;;;;;;;;6276852;22;20377;-46
2024/01/09 11:41:30;;;;;;;11.47;2.47;;;;;;;;;;6284693;22;20030;-46
2024/01/09 11:44:01;;;;;;;10.18;1.77;;;;;;;;;;6275984;22;20097;-46
2024/01/09 11:46:31;;;;;;;8.75;1.40;;;;;;;;;;6280743;22;20497;-44
2024/01/09 11:49:00;;;;;;;13.05;2.10;;;;;;;;;;6279369;22;20019;-46
2024/01/09 11:51:30;;;;;;;7.05;1.50;;;;;;;;;;6284655;22;20094;-45
2024/01/09 11:53:58;;;;;;;10.93;2.13;;;;;;;;;;6266145;22;20468;-46
2024/01/09 11:56:26;;;;;;;8.65;1.50;;;;;;;;;;6284420;22;20015;-44
2024/01/09 11:58:54;;;;;;;7.18;1.70;;;;;;;;;;6278440;22;20114;-44
2024/01/09 12:01:22;;;;;;;10.90;1.55;;;;;;;;;;6284523;22;20871;-45
2024/01/09 12:03:53;;;;;;;10.57;1.67;;;;;;;;;;6282601;22;20038;-44
2024/01/09 12:06:22;;;;;;;8.60;1.50;;;;;;;;;;6256290;22;20658;-44
2024/01/09 12:08:50;;;;;;;11.43;1.77;;;;;;;;;;6278593;22;20450;-44
2024/01/09 12:11:19;;;;;;;7.88;1.40;;;;;;;;;;6282327;22;20073;-46
2024/01/09 12:13:48;;;;;;;7.38;1.30;;;;;;;;;;6283634;22;20122;-45
2024/01/09 12:16:17;;;;;;;10.88;1.90;;;;;;;;;;6281272;22;20900;-45
2024/01/09 12:18:49;;;;;;;7.30;1.27;;;;;;;;;;6258877;22;20502;-45
2024/01/09 12:21:18;;;;;;;17.52;2.30;;;;;;;;;;6273215;22;20607;-44
2024/01/09 12:23:48;;;;;;;8.10;1.73;;;;;;;;;;6281864;22;20529;-45
2024/01/09 12:26:37;;;;;;;10.63;1.40;;;;;;;;;;6273941;22;20015;-44
2024/01/09 12:29:05;;;;;;;8.13;1.15;;;;;;;;;;6276754;22;20019;-47
2024/01/09 12:31:34;;;;;;;10.33;2.00;;;;;;;;;;6280757;22;20084;-44
2024/01/09 12:34:02;;;;;;;11.10;1.50;;;;;;;;;;6219779;22;20355;-48
2024/01/09 12:36:34;;;;;;;7.07;1.60;;;;;;;;;;6278969;22;20127;-45
2024/01/09 12:39:08;;;;;;;7.80;1.80;;;;;;;;;;6275179;22;20072;-44
2024/01/09 12:41:36;;;;;;;6.05;1.23;;;;;;;;;;6278733;22;20019;-46
2024/01/09 12:44:08;;;;;;;7.20;1.30;;;;;;;;;;6284011;22;20020;-44
2024/01/09 12:46:36;;;;;;;7.72;1.05;;;;;;;;;;6282572;22;20011;-45
2024/01/09 12:49:04;;;;;;;7.85;1.75;;;;;;;;;;6284271;22;20012;-44
2024/01/09 12:51:35;;;;;;;7.90;1.58;;;;;;;;;;6281732;22;20068;-44
2024/01/09 12:54:03;;;;;;;7.50;1.90;;;;;;;;;;6279751;22;20026;-46
2024/01/09 12:56:31;;;;;;;9.10;1.60;;;;;;;;;;6282410;22;20015;-44
2024/01/09 12:58:59;;;;;;;10.43;1.75;;;;;;;;;;6278312;22;20019;-44
2024/01/09 13:01:27;;;;;;;10.95;2.00;;;;;;;;;;6254209;22;20343;-44
2024/01/09 13:03:59;;;;;;;10.60;1.70;;;;;;;;;;6272646;22;20019;-44
2024/01/09 13:06:29;;;;;;;8.88;1.02;;;;;;;;;;6279756;22;20023;-45
2024/01/09 13:08:58;;;;;;;6.77;1.13;;;;;;;;;;6287058;22;20450;-44
2024/01/09 13:11:26;;;;;;;9.60;1.88;;;;;;;;;;6281848;22;20757;-44
2024/01/09 13:13:54;;;;;;;10.18;1.75;;;;;;;;;;6286090;22;20015;-44
2024/01/09 13:16:22;;;;;;;8.32;1.50;;;;;;;;;;6242642;22;20015;-44
2024/01/09 13:18:50;;;;;;;7.90;1.10;;;;;;;;;;6279132;22;20021;-44
2024/01/09 13:21:19;;;;;;;8.07;1.03;;;;;;;;;;6274830;22;20065;-44
2024/01/09 13:23:47;;;;;;;7.03;1.10;;;;;;;;;;6283371;22;20398;-47
2024/01/09 13:26:21;;;;;;;11.88;1.98;;;;;;;;;;6240718;22;20034;-44
2024/01/09 13:28:50;;;;;;;7.25;1.33;;;;;;;;;;6278195;22;20410;-44
2024/01/09 13:31:20;;;;;;;12.20;1.65;;;;;;;;;;6274048;22;20021;-45
2024/01/09 13:33:52;;;;;;;8.93;1.63;;;;;;;;;;6224280;22;20029;-45
2024/01/09 13:36:20;;;;;;;12.10;1.17;;;;;;;;;;6265026;22;20019;-44
2024/01/09 13:38:48;;;;;;;14.90;1.67;;;;;;;;;;6279895;22;20015;-44
2024/01/09 13:41:16;;;;;;;5.57;1.00;;;;;;;;;;6273579;22;20039;-44
2024/01/09 13:43:48;;;;;;;7.43;1.10;;;;;;;;;;6273543;22;20094;-45
2024/01/09 13:46:16;;;;;;;8.70;1.70;;;;;;;;;;6248541;22;20117;-44
2024/01/09 13:48:46;;;;;;;11.57;0.88;;;;;;;;;;6274660;22;20053;-45
2024/01/09 13:51:14;;;;;;;8.20;1.02;;;;;;;;;;6279133;22;20038;-44
2024/01/09 13:53:44;;;;;;;7.45;1.35;;;;;;;;;;6277204;22;20027;-46
2024/01/09 13:56:15;;;;;;;10.95;1.30;;;;;;;;;;6257924;22;20011;-44
2024/01/09 13:58:43;;;;;;;13.53;1.30;;;;;;;;;;6280614;22;20019;-44
2024/01/09 14:01:14;;;;;;;9.38;1.55;;;;;;;;;;6256408;22;20369;-45
2024/01/09 14:03:47;;;;;;;9.68;0.75;;;;;;;;;;6274284;22;20057;-46
2024/01/09 14:06:16;;;;;;;7.82;1.27;;;;;;;;;;6276459;22;20026;-44
2024/01/09 14:08:44;;;;;;;7.30;1.13;;;;;;;;;;6271721;22;20384;-47
2024/01/09 14:11:12;;;;;;;8.87;2.00;;;;;;;;;;6277492;22;20011;-44
2024/01/09 14:13:40;;;;;;;12.43;1.48;;;;;;;;;;6286267;22;20555;-46
2024/01/09 14:16:08;;;;;;;9.38;1.50;;;;;;;;;;6277976;22;20061;-44
2024/01/09 14:18:37;;;;;;;7.85;1.70;;;;;;;;;;6283701;22;20019;-45
2024/01/09 14:21:05;;;;;;;13.70;1.10;;;;;;;;;;6277200;22;20506;-45
2024/01/09 14:23:34;;;;;;;12.13;1.10;;;;;;;;;;6249998;22;20020;-45
2024/01/09 14:26:04;;;;;;;10.10;1.02;;;;;;;;;;6272202;22;20015;-46
2024/01/09 14:28:32;;;;;;;9.18;1.00;;;;;;;;;;6280981;22;20442;-44
2024/01/09 14:31:00;;;;;;;8.05;1.10;;;;;;;;;;6281424;22;20479;-45
2024/01/09 14:33:28;;;;;;;9.18;1.15;;;;;;;;;;6252916;22;20019;-44
2024/01/09 14:35:59;;;;;;;9.33;1.20;;;;;;;;;;6245506;22;20019;-44
2024/01/09 14:38:27;;;;;;;7.85;1.13;;;;;;;;;;6280445;22;20050;-44
2024/01/09 14:40:55;;;;;;;8.88;1.20;;;;;;;;;;6254490;22;20047;-44
2024/01/09 14:43:23;;;;;;;12.55;1.33;;;;;;;;;;6255326;22;20072;-44
2024/01/09 14:45:52;;;;;;;8.70;0.70;;;;;;;;;;6280591;22;20477;-44